createdAt,value
2023-02-15T00:00:22.085Z,101817.60
2023-02-15T00:03:52.254Z,101813.80
2023-02-15T00:07:30.116Z,101812.40
2023-02-15T00:11:01.292Z,101804.40
2023-02-15T00:14:31.410Z,101801.40
2023-02-15T00:18:49.405Z,101802.20
2023-02-15T00:23:18.433Z,101793.00
2023-02-15T00:27:04.290Z,101790.60
2023-02-15T00:30:37.690Z,101786.40
2023-02-15T00:34:21.372Z,101772.00
2023-02-15T00:37:51.050Z,101774.60
2023-02-15T00:41:20.362Z,101776.00
2023-02-15T00:44:49.461Z,101780.60
2023-02-15T00:49:07.341Z,101779.80
2023-02-15T00:53:36.430Z,101778.60
2023-02-15T00:57:21.366Z,101784.20
2023-02-15T01:00:53.346Z,101787.20
2023-02-15T01:04:28.247Z,101789.40
2023-02-15T01:11:13.105Z,101780.40
2023-02-15T01:14:51.169Z,101774.80
2023-02-15T01:18:21.581Z,101780.00
2023-02-15T01:21:59.439Z,101771.40
2023-02-15T01:25:34.441Z,101764.40
2023-02-15T01:29:09.495Z,101765.00
2023-02-15T01:32:43.984Z,101762.40
2023-02-15T01:36:32.366Z,101757.40
2023-02-15T01:40:10.436Z,101745.20
2023-02-15T01:44:21.823Z,101752.60
2023-02-15T01:47:48.248Z,101737.20
2023-02-15T01:51:25.366Z,101728.00
2023-02-15T01:55:05.621Z,101721.80
2023-02-15T02:02:00.162Z,101718.00
2023-02-15T02:05:16.926Z,101719.20
2023-02-15T02:13:20.356Z,101721.20
2023-02-15T02:16:57.055Z,101709.20
2023-02-15T02:20:50.478Z,101699.20
2023-02-15T02:25:04.198Z,101689.00
2023-02-15T02:36:40.763Z,101668.80
2023-02-15T02:40:22.179Z,101672.60
2023-02-15T02:44:21.263Z,101666.20
2023-02-15T02:47:57.476Z,101673.60
2023-02-15T02:51:33.293Z,101670.60
2023-02-15T02:55:12.248Z,101670.60
2023-02-15T02:58:54.566Z,101667.20
2023-02-15T03:02:32.054Z,101661.00
2023-02-15T03:06:10.096Z,101671.20
2023-02-15T03:10:10.357Z,101664.20
2023-02-15T03:13:46.151Z,101673.20
2023-02-15T03:17:26.096Z,101671.60
2023-02-15T03:21:04.122Z,101678.00
2023-02-15T03:24:47.309Z,101676.00
2023-02-15T03:28:24.697Z,101675.80
2023-02-15T03:32:23.370Z,101666.00
2023-02-15T03:36:06.759Z,101665.00
2023-02-15T03:42:59.432Z,101659.80
2023-02-15T03:46:40.792Z,101651.80
2023-02-15T03:50:17.248Z,101649.80
2023-02-15T03:53:55.636Z,101653.60
2023-02-15T03:57:30.304Z,101652.80
2023-02-15T04:01:06.093Z,101647.80
2023-02-15T04:04:41.406Z,101646.40
2023-02-15T04:08:41.266Z,101653.40
2023-02-15T04:12:17.394Z,101647.20
2023-02-15T04:15:53.982Z,101644.40
2023-02-15T04:19:32.688Z,101646.00
2023-02-15T04:23:03.969Z,101647.40
2023-02-15T04:26:38.913Z,101644.80
2023-02-15T04:30:15.466Z,101638.40
2023-02-15T04:33:51.337Z,101637.00
2023-02-15T04:37:28.044Z,101630.80
2023-02-15T04:41:01.948Z,101629.00
2023-02-15T04:44:40.057Z,101622.40
2023-02-15T04:48:14.611Z,101620.60
2023-02-15T04:51:45.863Z,101622.40
2023-02-15T04:55:17.328Z,101623.60
2023-02-15T04:58:53.142Z,101628.80
2023-02-15T05:03:11.288Z,101625.00
2023-02-15T05:06:56.931Z,101624.60
2023-02-15T05:10:34.364Z,101635.00
2023-02-15T05:14:11.460Z,101625.40
2023-02-15T05:17:44.377Z,101620.60
2023-02-15T05:21:24.881Z,101621.60
2023-02-15T05:25:25.381Z,101616.80
2023-02-15T05:29:50.982Z,101617.20
2023-02-15T05:33:37.111Z,101609.00
2023-02-15T05:38:00.837Z,101613.80
2023-02-15T05:41:32.253Z,101605.80
2023-02-15T05:45:07.178Z,101606.20
2023-02-15T05:48:28.394Z,101610.20
2023-02-15T05:52:05.065Z,101610.80
2023-02-15T05:55:39.177Z,101606.20
2023-02-15T06:39:52.239Z,101623.80
2023-02-15T06:43:07.991Z,101621.60
2023-02-15T06:47:07.051Z,101620.60
2023-02-15T06:50:50.961Z,101615.60
2023-02-15T06:54:54.297Z,101621.80
2023-02-15T06:58:19.133Z,101616.60
2023-02-15T07:01:48.895Z,101611.40
2023-02-15T07:05:25.030Z,101610.80
2023-02-15T07:08:59.121Z,101614.40
2023-02-15T07:12:33.006Z,101608.40
2023-02-15T08:12:30.222Z,101529.00
2023-02-15T08:14:58.934Z,101521.80
2023-02-15T08:17:27.383Z,101519.20
2023-02-15T08:20:10.275Z,101514.60
2023-02-15T08:22:38.787Z,101515.60
2023-02-15T08:25:07.466Z,101506.00
2023-02-15T08:27:36.871Z,101505.20
2023-02-15T08:30:06.310Z,101506.80
2023-02-15T08:33:00.412Z,101507.00
2023-02-15T08:35:29.949Z,101504.80
2023-02-15T08:37:58.836Z,101506.80
2023-02-15T08:40:27.368Z,101502.00
2023-02-15T08:42:57.432Z,101502.60
2023-02-15T08:45:26.857Z,101498.20
2023-02-15T08:47:57.481Z,101503.00
2023-02-15T08:50:39.667Z,101498.00
2023-02-15T08:56:05.150Z,101496.00
2023-02-15T08:58:34.689Z,101494.00
2023-02-15T09:01:21.611Z,101492.60
2023-02-15T09:03:55.868Z,101493.00
2023-02-15T09:06:39.768Z,101486.40
2023-02-15T09:09:23.105Z,101480.80
2023-02-15T09:11:57.774Z,101478.20
2023-02-15T09:14:41.369Z,101479.80
2023-02-15T09:17:09.709Z,101480.40
2023-02-15T09:19:38.544Z,101474.40
2023-02-15T09:22:07.133Z,101476.40
2023-02-15T09:27:18.192Z,101478.80
2023-02-15T09:29:46.663Z,101479.80
2023-02-15T09:32:16.910Z,101477.60
2023-02-15T09:34:45.410Z,101478.60
2023-02-15T09:39:55.902Z,101472.80
2023-02-15T09:42:46.590Z,101477.00
2023-02-15T09:45:24.631Z,101472.80
2023-02-15T09:48:28.702Z,101473.80
2023-02-15T09:51:27.755Z,101465.00
2023-02-15T09:54:21.370Z,101463.00
2023-02-15T09:57:00.664Z,101456.80
2023-02-15T09:59:57.980Z,101459.40
2023-02-15T10:03:06.332Z,101451.60
2023-02-15T10:06:03.318Z,101448.40
2023-02-15T10:09:07.715Z,101438.40
2023-02-15T10:12:12.846Z,101430.60
2023-02-15T10:15:01.354Z,101434.60
2023-02-15T10:17:57.026Z,101428.00
2023-02-15T10:20:36.591Z,101423.80
2023-02-15T10:23:36.047Z,101416.40
2023-02-15T10:26:23.972Z,101416.20
2023-02-15T10:29:04.607Z,101420.80
2023-02-15T10:32:12.131Z,101416.40
2023-02-15T10:34:53.129Z,101414.80
2023-02-15T10:41:01.045Z,101406.80
2023-02-15T10:44:07.128Z,101407.40
2023-02-15T10:46:55.297Z,101401.00
2023-02-15T10:50:22.470Z,101399.40
2023-02-15T10:53:11.756Z,101393.00
2023-02-15T10:55:57.015Z,101390.60
2023-02-15T11:01:55.397Z,101383.20
2023-02-15T11:05:02.105Z,101376.20
2023-02-15T11:07:44.530Z,101369.60
2023-02-15T11:13:35.208Z,101366.00
2023-02-15T11:16:51.806Z,101362.60
2023-02-15T11:19:56.366Z,101358.80
2023-02-15T11:22:26.034Z,101360.00
2023-02-15T11:25:36.019Z,101351.20
2023-02-15T11:28:20.491Z,101342.40
2023-02-15T11:31:25.099Z,101342.00
2023-02-15T11:34:07.733Z,101337.80
2023-02-15T11:36:56.086Z,101336.00
2023-02-15T11:39:29.805Z,101330.40
2023-02-15T11:42:20.123Z,101327.60
2023-02-15T11:45:08.268Z,101320.00
2023-02-15T11:47:36.658Z,101318.60
2023-02-15T11:50:05.602Z,101318.80
2023-02-15T11:55:31.087Z,101303.20
2023-02-15T12:01:38.107Z,101294.60
2023-02-15T12:04:26.494Z,101296.00
2023-02-15T12:07:05.842Z,101293.00
2023-02-15T12:09:54.274Z,101286.20
2023-02-15T12:12:38.186Z,101281.20
2023-02-15T12:15:13.827Z,101280.20
2023-02-15T12:17:52.192Z,101276.20
2023-02-15T12:20:24.644Z,101276.60
2023-02-15T12:23:03.440Z,101276.60
2023-02-15T12:25:43.667Z,101276.80
2023-02-15T12:28:35.464Z,101271.80
2023-02-15T12:31:22.075Z,101269.60
2023-02-15T12:34:32.361Z,101271.60
2023-02-15T12:37:17.195Z,101268.80
2023-02-15T12:40:00.405Z,101267.60
2023-02-15T12:42:46.253Z,101260.00
2023-02-15T12:45:32.505Z,101259.40
2023-02-15T12:48:14.145Z,101253.60
2023-02-15T12:51:10.725Z,101249.80
2023-02-15T12:53:40.350Z,101248.00
2023-02-15T12:56:11.338Z,101247.40
2023-02-15T13:01:26.954Z,101240.40
2023-02-15T13:04:06.029Z,101239.60
2023-02-15T13:06:37.810Z,101232.40
2023-02-15T13:09:35.956Z,101226.00
2023-02-15T13:12:31.885Z,101223.60
2023-02-15T13:15:03.371Z,101219.60
2023-02-15T13:17:46.619Z,101216.80
2023-02-15T13:20:24.855Z,101216.40
2023-02-15T13:23:29.849Z,101222.60
2023-02-15T13:26:21.729Z,101219.00
2023-02-15T13:34:40.870Z,101220.20
2023-02-15T13:37:45.817Z,101217.40
2023-02-15T13:41:04.641Z,101210.60
2023-02-15T13:43:49.752Z,101211.40
2023-02-15T13:46:44.227Z,101206.80
2023-02-15T13:50:23.730Z,101208.00
2023-02-15T13:53:26.956Z,101205.20
2023-02-15T13:56:35.234Z,101202.20
2023-02-15T13:59:26.174Z,101196.80
2023-02-15T14:02:16.570Z,101194.40
2023-02-15T14:05:35.852Z,101186.80
2023-02-15T14:08:23.832Z,101189.80
2023-02-15T14:11:22.622Z,101191.40
2023-02-15T14:17:26.022Z,101184.20
2023-02-15T14:20:26.824Z,101179.40
2023-02-15T14:23:42.224Z,101185.60
2023-02-15T14:29:57.691Z,101186.40
2023-02-15T14:32:47.722Z,101181.20
2023-02-15T14:35:20.604Z,101177.20
2023-02-15T14:38:00.908Z,101183.40
2023-02-15T14:41:05.838Z,101177.40
2023-02-15T14:44:17.024Z,101176.80
2023-02-15T14:47:41.029Z,101181.40
2023-02-15T14:50:50.026Z,101182.80
2023-02-15T14:53:24.545Z,101184.00
2023-02-15T14:59:20.634Z,101182.80
2023-02-15T15:05:27.469Z,101175.80
2023-02-15T15:14:47.017Z,101181.20
2023-02-15T15:20:27.129Z,101174.20
2023-02-15T15:26:25.325Z,101178.20
2023-02-15T15:28:53.404Z,101179.60
2023-02-15T15:31:46.919Z,101177.20
2023-02-15T15:34:44.223Z,101171.80
2023-02-15T15:40:58.445Z,101168.00
2023-02-15T15:43:50.885Z,101164.20
2023-02-15T15:46:55.942Z,101163.60
2023-02-15T15:49:40.401Z,101165.80
2023-02-15T15:52:23.020Z,101166.60
2023-02-15T15:54:58.462Z,101165.00
2023-02-15T15:57:45.314Z,101167.80
2023-02-15T16:00:54.386Z,101162.80
2023-02-15T16:03:36.706Z,101161.80
2023-02-15T16:06:40.366Z,101158.40
2023-02-15T16:09:26.347Z,101158.40
2023-02-15T16:12:18.702Z,101157.80
2023-02-15T16:15:16.045Z,101156.80
2023-02-15T16:18:00.781Z,101156.40
2023-02-15T16:20:52.632Z,101159.40
2023-02-15T16:23:37.676Z,101159.20
2023-02-15T16:26:25.099Z,101160.40
2023-02-15T16:28:55.163Z,101166.80
2023-02-15T16:31:37.309Z,101164.80
2023-02-15T16:34:18.798Z,101165.40
2023-02-15T16:36:47.276Z,101165.00
2023-02-15T16:39:21.495Z,101166.20
2023-02-15T16:41:55.482Z,101164.60
2023-02-15T16:44:38.302Z,101168.60
2023-02-15T16:47:21.105Z,101159.60
2023-02-15T16:50:05.677Z,101166.20
2023-02-15T16:52:35.546Z,101160.00
2023-02-15T16:55:25.859Z,101156.60
2023-02-15T16:58:03.945Z,101160.60
2023-02-15T17:00:38.865Z,101158.00
2023-02-15T17:03:24.579Z,101154.80
2023-02-15T17:06:02.038Z,101151.20
2023-02-15T17:08:45.380Z,101146.80
2023-02-15T17:11:42.101Z,101150.20
2023-02-15T17:14:11.138Z,101158.40
2023-02-15T17:16:52.091Z,101152.80
2023-02-15T17:19:54.627Z,101147.00
2023-02-15T17:22:41.559Z,101148.60
2023-02-15T17:25:24.786Z,101146.40
2023-02-15T17:29:03.978Z,101138.00
2023-02-15T17:31:34.697Z,101138.20
2023-02-15T17:34:04.145Z,101138.80
2023-02-15T17:36:33.375Z,101134.60
2023-02-15T17:39:19.483Z,101131.80
2023-02-15T17:42:04.494Z,101130.00
2023-02-15T17:44:32.882Z,101128.80
2023-02-15T17:47:01.330Z,101124.40
2023-02-15T17:49:34.910Z,101121.20
2023-02-15T17:52:18.629Z,101123.00
2023-02-15T17:58:24.907Z,101119.60
2023-02-15T18:01:12.544Z,101117.40
2023-02-15T18:04:08.518Z,101123.60
2023-02-15T18:07:06.047Z,101127.20
2023-02-15T18:10:01.976Z,101126.40
2023-02-15T18:12:39.519Z,101124.40
2023-02-15T18:15:11.563Z,101127.60
2023-02-15T18:17:56.389Z,101126.80
2023-02-15T18:20:34.949Z,101129.80
2023-02-15T18:23:03.813Z,101124.80
2023-02-15T18:25:46.694Z,101121.00
2023-02-15T18:28:15.228Z,101117.80
2023-02-15T18:30:57.536Z,101113.40
2023-02-15T18:33:36.604Z,101115.00
2023-02-15T18:36:13.800Z,101113.80
2023-02-15T18:38:42.284Z,101113.20
2023-02-15T18:41:18.922Z,101112.00
2023-02-15T18:44:01.033Z,101113.40
2023-02-15T18:46:43.125Z,101114.00
2023-02-15T18:49:11.554Z,101116.00
2023-02-15T18:51:43.290Z,101113.40
2023-02-15T18:54:27.202Z,101109.60
2023-02-15T18:57:14.855Z,101107.80
2023-02-15T18:59:43.899Z,101106.00
2023-02-15T19:02:15.371Z,101097.40
2023-02-15T19:04:45.830Z,101101.20
2023-02-15T19:07:30.184Z,101098.40
2023-02-15T19:10:21.507Z,101092.80
2023-02-15T19:13:03.747Z,101097.00
2023-02-15T19:18:41.632Z,101089.20
2023-02-15T19:24:25.913Z,101081.40
2023-02-15T19:26:54.747Z,101081.40
2023-02-15T19:29:30.223Z,101081.00
2023-02-15T19:31:58.688Z,101081.80
2023-02-15T19:34:28.361Z,101078.80
2023-02-15T19:36:57.308Z,101082.80
2023-02-15T19:39:35.267Z,101083.00
2023-02-15T19:42:04.013Z,101080.20
2023-02-15T19:44:32.650Z,101081.40
2023-02-15T19:47:01.195Z,101074.40
2023-02-15T19:49:30.221Z,101073.40
2023-02-15T19:52:00.188Z,101074.40
2023-02-15T19:54:34.872Z,101068.80
2023-02-15T19:57:03.369Z,101069.40
2023-02-15T19:59:36.799Z,101067.20
2023-02-15T20:02:05.977Z,101071.40
2023-02-15T20:04:34.690Z,101071.80
2023-02-15T20:07:06.949Z,101070.40
2023-02-15T20:09:38.220Z,101067.40
2023-02-15T20:12:21.768Z,101064.80
2023-02-15T20:14:53.322Z,101069.20
2023-02-15T20:17:23.307Z,101065.60
2023-02-15T20:19:56.508Z,101064.40
2023-02-15T20:22:38.773Z,101060.80
2023-02-15T20:25:32.327Z,101061.00
2023-02-15T20:28:01.762Z,101065.60
2023-02-15T20:30:44.206Z,101062.00
2023-02-15T20:36:23.271Z,101067.00
2023-02-15T20:39:17.786Z,101066.20
2023-02-15T20:41:49.384Z,101062.20
2023-02-15T20:44:34.754Z,101059.60
2023-02-15T20:47:03.028Z,101060.40
2023-02-15T20:49:45.192Z,101050.20
2023-02-15T20:52:20.969Z,101054.00
2023-02-15T20:55:03.190Z,101051.40
2023-02-15T20:57:46.355Z,101047.20
2023-02-15T21:00:32.952Z,101041.00
2023-02-15T21:06:04.352Z,101041.40
2023-02-15T21:08:46.427Z,101040.60
2023-02-15T21:14:25.168Z,101029.60
2023-02-15T21:17:07.390Z,101036.40
2023-02-15T21:19:36.189Z,101032.60
2023-02-15T21:22:04.949Z,101035.40
2023-02-15T21:24:33.569Z,101045.20
2023-02-15T21:27:04.527Z,101044.80
2023-02-15T21:29:32.868Z,101046.00
2023-02-15T21:32:02.720Z,101037.60
2023-02-15T21:34:31.301Z,101037.20
2023-02-15T21:37:00.035Z,101031.20
2023-02-15T21:39:34.169Z,101030.20
2023-02-15T21:42:17.071Z,101026.60
2023-02-15T21:44:59.336Z,101033.40
2023-02-15T21:47:46.258Z,101027.80
2023-02-15T21:50:39.292Z,101029.60
2023-02-15T21:53:14.287Z,101032.00
2023-02-15T21:55:43.290Z,101026.20
2023-02-15T21:58:22.477Z,101025.00
2023-02-15T22:00:51.068Z,101024.20
2023-02-15T22:03:19.526Z,101014.60
2023-02-15T22:05:47.907Z,101015.00
2023-02-15T22:08:33.773Z,101010.20
2023-02-15T22:11:03.666Z,101007.60
2023-02-15T22:13:34.504Z,101002.00
2023-02-15T22:16:21.106Z,100997.40
2023-02-15T22:18:50.022Z,100992.20
2023-02-15T22:21:19.504Z,100989.20
2023-02-15T22:23:48.045Z,100984.20
2023-02-15T22:26:25.236Z,100983.80
2023-02-15T22:28:54.346Z,100986.60
2023-02-15T22:31:23.813Z,100994.60
2023-02-15T22:34:07.936Z,100994.00
2023-02-15T22:36:36.464Z,100991.60
2023-02-15T22:39:05.105Z,100994.40
2023-02-15T22:41:33.442Z,100996.00
2023-02-15T22:44:02.928Z,100991.80
2023-02-15T22:46:31.489Z,100993.60
2023-02-15T22:49:01.631Z,100991.20
2023-02-15T22:51:30.308Z,100994.20
2023-02-15T22:54:12.462Z,100995.60
2023-02-15T22:56:47.038Z,100987.40
2023-02-15T23:03:57.846Z,100989.40
2023-02-15T23:07:23.274Z,100994.60
2023-02-15T23:09:58.502Z,100994.60
2023-02-15T23:12:54.289Z,101002.40
2023-02-15T23:22:16.297Z,101000.40
2023-02-15T23:25:30.716Z,100998.60
2023-02-15T23:29:04.392Z,101000.80
2023-02-15T23:32:35.551Z,100999.60
2023-02-15T23:36:10.253Z,101002.20
2023-02-15T23:39:55.623Z,100999.20
2023-02-15T23:43:30.993Z,101001.80
2023-02-15T23:47:10.267Z,101002.20
2023-02-15T23:51:28.524Z,100998.60
2023-02-15T23:55:59.263Z,101005.40
